sensor_id;sensor_type;location;lat;lon;timestamp;P1;durP1;ratioP1;P2;durP2;ratioP2
8281;SDS011;25606;42.686;23.136;2022-10-22T00:01:06;18.60;;;14.17;;
8281;SDS011;25606;42.686;23.136;2022-10-22T00:03:34;18.10;;;13.10;;
8281;SDS011;25606;42.686;23.136;2022-10-22T00:06:02;21.50;;;13.87;;
8281;SDS011;25606;42.686;23.136;2022-10-22T00:08:30;20.03;;;13.50;;
8281;SDS011;25606;42.686;23.136;2022-10-22T00:10:57;21.03;;;15.03;;
8281;SDS011;25606;42.686;23.136;2022-10-22T00:13:24;19.63;;;15.67;;
8281;SDS011;25606;42.686;23.136;2022-10-22T00:15:52;21.53;;;15.90;;
8281;SDS011;25606;42.686;23.136;2022-10-22T00:18:19;24.10;;;15.80;;
8281;SDS011;25606;42.686;23.136;2022-10-22T00:20:46;25.87;;;17.17;;
8281;SDS011;25606;42.686;23.136;2022-10-22T00:23:15;20.23;;;16.37;;
8281;SDS011;25606;42.686;23.136;2022-10-22T00:25:42;20.60;;;16.23;;
8281;SDS011;25606;42.686;23.136;2022-10-22T00:28:09;23.33;;;16.03;;
8281;SDS011;25606;42.686;23.136;2022-10-22T00:30:37;19.80;;;14.50;;
8281;SDS011;25606;42.686;23.136;2022-10-22T00:33:04;26.60;;;17.53;;
8281;SDS011;25606;42.686;23.136;2022-10-22T00:35:31;23.87;;;16.63;;
8281;SDS011;25606;42.686;23.136;2022-10-22T00:37:58;22.93;;;16.90;;
8281;SDS011;25606;42.686;23.136;2022-10-22T00:40:27;21.93;;;15.70;;
8281;SDS011;25606;42.686;23.136;2022-10-22T00:42:54;22.67;;;17.00;;
8281;SDS011;25606;42.686;23.136;2022-10-22T00:45:22;22.37;;;15.90;;
8281;SDS011;25606;42.686;23.136;2022-10-22T00:47:51;21.90;;;15.53;;
8281;SDS011;25606;42.686;23.136;2022-10-22T00:50:21;21.77;;;15.73;;
8281;SDS011;25606;42.686;23.136;2022-10-22T00:52:49;22.23;;;14.70;;
8281;SDS011;25606;42.686;23.136;2022-10-22T00:55:16;20.70;;;14.93;;
8281;SDS011;25606;42.686;23.136;2022-10-22T00:57:46;18.47;;;14.93;;
8281;SDS011;25606;42.686;23.136;2022-10-22T01:00:13;21.93;;;15.50;;
8281;SDS011;25606;42.686;23.136;2022-10-22T01:02:40;20.43;;;15.47;;
8281;SDS011;25606;42.686;23.136;2022-10-22T01:05:08;22.37;;;15.27;;
8281;SDS011;25606;42.686;23.136;2022-10-22T01:07:37;21.67;;;16.17;;
8281;SDS011;25606;42.686;23.136;2022-10-22T01:10:07;26.53;;;17.07;;
8281;SDS011;25606;42.686;23.136;2022-10-22T01:12:39;19.80;;;14.90;;
8281;SDS011;25606;42.686;23.136;2022-10-22T01:15:12;22.13;;;15.70;;
8281;SDS011;25606;42.686;23.136;2022-10-22T01:17:43;21.50;;;16.27;;
8281;SDS011;25606;42.686;23.136;2022-10-22T01:20:17;20.67;;;16.27;;
8281;SDS011;25606;42.686;23.136;2022-10-22T01:22:51;21.43;;;16.57;;
8281;SDS011;25606;42.686;23.136;2022-10-22T01:25:22;22.97;;;16.67;;
8281;SDS011;25606;42.686;23.136;2022-10-22T01:27:56;24.13;;;16.53;;
8281;SDS011;25606;42.686;23.136;2022-10-22T01:30:28;23.33;;;17.20;;
8281;SDS011;25606;42.686;23.136;2022-10-22T01:32:56;26.90;;;16.63;;
8281;SDS011;25606;42.686;23.136;2022-10-22T01:35:26;25.93;;;17.63;;
8281;SDS011;25606;42.686;23.136;2022-10-22T01:37:55;22.67;;;17.47;;
8281;SDS011;25606;42.686;23.136;2022-10-22T01:40:24;24.27;;;16.83;;
8281;SDS011;25606;42.686;23.136;2022-10-22T01:42:54;24.60;;;16.70;;
8281;SDS011;25606;42.686;23.136;2022-10-22T01:45:21;23.00;;;16.77;;
8281;SDS011;25606;42.686;23.136;2022-10-22T01:47:52;23.40;;;16.37;;
8281;SDS011;25606;42.686;23.136;2022-10-22T01:53:15;26.37;;;18.13;;
8281;SDS011;25606;42.686;23.136;2022-10-22T01:55:47;23.00;;;17.73;;
8281;SDS011;25606;42.686;23.136;2022-10-22T01:58:19;27.53;;;18.30;;
8281;SDS011;25606;42.686;23.136;2022-10-22T02:00:49;27.97;;;18.10;;
8281;SDS011;25606;42.686;23.136;2022-10-22T02:03:23;24.70;;;17.57;;
8281;SDS011;25606;42.686;23.136;2022-10-22T02:05:53;25.70;;;18.67;;
8281;SDS011;25606;42.686;23.136;2022-10-22T02:08:22;26.80;;;17.87;;
8281;SDS011;25606;42.686;23.136;2022-10-22T02:10:50;26.47;;;17.23;;
8281;SDS011;25606;42.686;23.136;2022-10-22T02:13:20;25.17;;;17.93;;
8281;SDS011;25606;42.686;23.136;2022-10-22T02:15:49;26.00;;;18.17;;
8281;SDS011;25606;42.686;23.136;2022-10-22T02:18:17;24.13;;;17.97;;
8281;SDS011;25606;42.686;23.136;2022-10-22T02:20:47;27.10;;;17.73;;
8281;SDS011;25606;42.686;23.136;2022-10-22T02:23:15;24.53;;;16.63;;
8281;SDS011;25606;42.686;23.136;2022-10-22T02:25:43;25.90;;;17.30;;
8281;SDS011;25606;42.686;23.136;2022-10-22T02:28:15;25.13;;;17.20;;
8281;SDS011;25606;42.686;23.136;2022-10-22T02:30:45;28.90;;;17.57;;
8281;SDS011;25606;42.686;23.136;2022-10-22T02:33:15;21.70;;;15.90;;
8281;SDS011;25606;42.686;23.136;2022-10-22T02:35:42;25.67;;;17.50;;
8281;SDS011;25606;42.686;23.136;2022-10-22T02:38:12;28.50;;;18.20;;
8281;SDS011;25606;42.686;23.136;2022-10-22T02:40:39;28.47;;;18.07;;
8281;SDS011;25606;42.686;23.136;2022-10-22T02:43:07;24.70;;;18.00;;
8281;SDS011;25606;42.686;23.136;2022-10-22T02:45:34;22.97;;;17.67;;
8281;SDS011;25606;42.686;23.136;2022-10-22T02:48:02;26.17;;;17.67;;
8281;SDS011;25606;42.686;23.136;2022-10-22T02:50:29;24.30;;;16.93;;
8281;SDS011;25606;42.686;23.136;2022-10-22T02:52:57;22.57;;;16.20;;
8281;SDS011;25606;42.686;23.136;2022-10-22T02:55:25;28.87;;;17.33;;
8281;SDS011;25606;42.686;23.136;2022-10-22T02:57:52;22.10;;;15.10;;
8281;SDS011;25606;42.686;23.136;2022-10-22T03:00:20;21.93;;;16.80;;
8281;SDS011;25606;42.686;23.136;2022-10-22T03:02:47;23.73;;;16.00;;
8281;SDS011;25606;42.686;23.136;2022-10-22T03:05:14;24.30;;;17.30;;
8281;SDS011;25606;42.686;23.136;2022-10-22T03:07:42;21.37;;;15.57;;
8281;SDS011;25606;42.686;23.136;2022-10-22T03:10:09;23.53;;;17.13;;
8281;SDS011;25606;42.686;23.136;2022-10-22T03:12:38;23.13;;;16.77;;
8281;SDS011;25606;42.686;23.136;2022-10-22T03:15:05;19.93;;;15.83;;
8281;SDS011;25606;42.686;23.136;2022-10-22T03:17:32;24.33;;;16.17;;
8281;SDS011;25606;42.686;23.136;2022-10-22T03:20:00;28.10;;;16.87;;
8281;SDS011;25606;42.686;23.136;2022-10-22T03:22:27;21.30;;;15.87;;
8281;SDS011;25606;42.686;23.136;2022-10-22T03:24:56;25.13;;;15.90;;
8281;SDS011;25606;42.686;23.136;2022-10-22T03:27:24;22.67;;;16.03;;
8281;SDS011;25606;42.686;23.136;2022-10-22T03:29:54;23.83;;;16.13;;
8281;SDS011;25606;42.686;23.136;2022-10-22T03:32:22;22.33;;;15.97;;
8281;SDS011;25606;42.686;23.136;2022-10-22T03:34:49;23.97;;;17.03;;
8281;SDS011;25606;42.686;23.136;2022-10-22T03:37:17;24.37;;;17.03;;
8281;SDS011;25606;42.686;23.136;2022-10-22T03:39:44;23.60;;;17.53;;
8281;SDS011;25606;42.686;23.136;2022-10-22T03:42:11;22.73;;;16.60;;
8281;SDS011;25606;42.686;23.136;2022-10-22T03:44:40;22.70;;;16.40;;
8281;SDS011;25606;42.686;23.136;2022-10-22T03:47:09;22.07;;;16.73;;
8281;SDS011;25606;42.686;23.136;2022-10-22T03:49:36;20.77;;;15.30;;
8281;SDS011;25606;42.686;23.136;2022-10-22T03:52:04;24.27;;;16.20;;
8281;SDS011;25606;42.686;23.136;2022-10-22T03:54:32;22.83;;;16.10;;
8281;SDS011;25606;42.686;23.136;2022-10-22T03:56:59;22.37;;;16.23;;
8281;SDS011;25606;42.686;23.136;2022-10-22T03:59:26;20.00;;;15.40;;
8281;SDS011;25606;42.686;23.136;2022-10-22T04:01:53;21.23;;;15.90;;
8281;SDS011;25606;42.686;23.136;2022-10-22T04:04:22;23.30;;;16.23;;
8281;SDS011;25606;42.686;23.136;2022-10-22T04:06:49;23.13;;;16.90;;
8281;SDS011;25606;42.686;23.136;2022-10-22T04:09:16;28.17;;;17.77;;
8281;SDS011;25606;42.686;23.136;2022-10-22T04:11:44;24.53;;;17.73;;
8281;SDS011;25606;42.686;23.136;2022-10-22T04:14:11;25.87;;;17.60;;
8281;SDS011;25606;42.686;23.136;2022-10-22T04:16:38;25.43;;;19.00;;
8281;SDS011;25606;42.686;23.136;2022-10-22T04:19:06;22.63;;;16.87;;
8281;SDS011;25606;42.686;23.136;2022-10-22T04:21:35;23.43;;;17.07;;
8281;SDS011;25606;42.686;23.136;2022-10-22T04:24:03;23.63;;;16.63;;
8281;SDS011;25606;42.686;23.136;2022-10-22T04:26:30;24.27;;;16.77;;
8281;SDS011;25606;42.686;23.136;2022-10-22T04:28:57;22.87;;;16.80;;
8281;SDS011;25606;42.686;23.136;2022-10-22T04:31:25;22.20;;;15.90;;
8281;SDS011;25606;42.686;23.136;2022-10-22T04:33:52;22.13;;;15.37;;
8281;SDS011;25606;42.686;23.136;2022-10-22T04:36:20;29.17;;;16.67;;
8281;SDS011;25606;42.686;23.136;2022-10-22T04:38:50;22.90;;;14.93;;
8281;SDS011;25606;42.686;23.136;2022-10-22T04:41:19;24.00;;;17.40;;
8281;SDS011;25606;42.686;23.136;2022-10-22T04:43:47;25.53;;;16.60;;
8281;SDS011;25606;42.686;23.136;2022-10-22T04:46:14;22.33;;;16.27;;
8281;SDS011;25606;42.686;23.136;2022-10-22T04:48:43;21.07;;;15.77;;
8281;SDS011;25606;42.686;23.136;2022-10-22T04:51:12;24.10;;;16.43;;
8281;SDS011;25606;42.686;23.136;2022-10-22T04:53:39;20.03;;;15.13;;
8281;SDS011;25606;42.686;23.136;2022-10-22T04:56:09;25.77;;;18.83;;
8281;SDS011;25606;42.686;23.136;2022-10-22T04:58:37;22.83;;;17.40;;
8281;SDS011;25606;42.686;23.136;2022-10-22T05:01:08;24.60;;;17.87;;
8281;SDS011;25606;42.686;23.136;2022-10-22T05:03:35;21.50;;;16.13;;
8281;SDS011;25606;42.686;23.136;2022-10-22T05:06:03;23.37;;;16.23;;
8281;SDS011;25606;42.686;23.136;2022-10-22T05:08:30;21.67;;;16.17;;
8281;SDS011;25606;42.686;23.136;2022-10-22T05:10:57;21.50;;;15.93;;
8281;SDS011;25606;42.686;23.136;2022-10-22T05:13:26;22.00;;;16.87;;
8281;SDS011;25606;42.686;23.136;2022-10-22T05:15:53;22.50;;;15.93;;
8281;SDS011;25606;42.686;23.136;2022-10-22T05:18:20;23.93;;;16.57;;
8281;SDS011;25606;42.686;23.136;2022-10-22T05:20:48;21.70;;;15.60;;
8281;SDS011;25606;42.686;23.136;2022-10-22T05:23:15;22.17;;;15.90;;
8281;SDS011;25606;42.686;23.136;2022-10-22T05:25:42;20.97;;;15.73;;
8281;SDS011;25606;42.686;23.136;2022-10-22T05:28:09;22.13;;;16.00;;
8281;SDS011;25606;42.686;23.136;2022-10-22T05:30:38;25.37;;;16.83;;
8281;SDS011;25606;42.686;23.136;2022-10-22T05:33:05;24.30;;;16.77;;
8281;SDS011;25606;42.686;23.136;2022-10-22T05:35:32;26.97;;;16.93;;
8281;SDS011;25606;42.686;23.136;2022-10-22T05:38:00;21.77;;;16.53;;
8281;SDS011;25606;42.686;23.136;2022-10-22T05:40:27;23.87;;;17.00;;
8281;SDS011;25606;42.686;23.136;2022-10-22T05:42:54;22.30;;;16.10;;
8281;SDS011;25606;42.686;23.136;2022-10-22T05:45:21;21.77;;;16.13;;
8281;SDS011;25606;42.686;23.136;2022-10-22T05:47:50;20.40;;;15.87;;
8281;SDS011;25606;42.686;23.136;2022-10-22T05:50:17;22.07;;;15.83;;
8281;SDS011;25606;42.686;23.136;2022-10-22T05:52:45;19.83;;;15.33;;
8281;SDS011;25606;42.686;23.136;2022-10-22T05:55:12;19.13;;;14.73;;
8281;SDS011;25606;42.686;23.136;2022-10-22T05:57:40;19.47;;;15.10;;
8281;SDS011;25606;42.686;23.136;2022-10-22T06:00:07;21.10;;;15.13;;
8281;SDS011;25606;42.686;23.136;2022-10-22T06:02:35;20.53;;;15.33;;
8281;SDS011;25606;42.686;23.136;2022-10-22T06:05:04;19.33;;;14.30;;
8281;SDS011;25606;42.686;23.136;2022-10-22T06:07:31;22.23;;;14.90;;
8281;SDS011;25606;42.686;23.136;2022-10-22T06:09:58;19.80;;;15.50;;
8281;SDS011;25606;42.686;23.136;2022-10-22T06:12:25;21.97;;;15.93;;
8281;SDS011;25606;42.686;23.136;2022-10-22T06:14:53;24.40;;;15.53;;
8281;SDS011;25606;42.686;23.136;2022-10-22T06:17:20;21.03;;;15.43;;
8281;SDS011;25606;42.686;23.136;2022-10-22T06:19:47;20.60;;;14.67;;
8281;SDS011;25606;42.686;23.136;2022-10-22T06:22:16;21.37;;;15.43;;
8281;SDS011;25606;42.686;23.136;2022-10-22T06:24:43;18.80;;;14.17;;
8281;SDS011;25606;42.686;23.136;2022-10-22T06:27:10;18.27;;;13.97;;
8281;SDS011;25606;42.686;23.136;2022-10-22T06:29:38;18.33;;;14.63;;
8281;SDS011;25606;42.686;23.136;2022-10-22T06:32:05;19.27;;;14.93;;
8281;SDS011;25606;42.686;23.136;2022-10-22T06:34:32;19.17;;;14.93;;
8281;SDS011;25606;42.686;23.136;2022-10-22T06:36:59;16.57;;;13.97;;
8281;SDS011;25606;42.686;23.136;2022-10-22T06:39:28;19.27;;;14.13;;
8281;SDS011;25606;42.686;23.136;2022-10-22T06:41:55;19.30;;;13.80;;
8281;SDS011;25606;42.686;23.136;2022-10-22T06:44:22;16.93;;;13.67;;
8281;SDS011;25606;42.686;23.136;2022-10-22T06:46:50;18.00;;;14.73;;
8281;SDS011;25606;42.686;23.136;2022-10-22T06:49:18;17.63;;;13.57;;
8281;SDS011;25606;42.686;23.136;2022-10-22T06:51:48;17.37;;;13.10;;
8281;SDS011;25606;42.686;23.136;2022-10-22T06:54:15;20.47;;;12.97;;
8281;SDS011;25606;42.686;23.136;2022-10-22T06:56:44;18.20;;;12.47;;
8281;SDS011;25606;42.686;23.136;2022-10-22T06:59:11;15.47;;;12.90;;
8281;SDS011;25606;42.686;23.136;2022-10-22T07:01:38;17.17;;;12.77;;
8281;SDS011;25606;42.686;23.136;2022-10-22T07:04:06;14.47;;;12.73;;
8281;SDS011;25606;42.686;23.136;2022-10-22T07:06:34;18.00;;;13.13;;
8281;SDS011;25606;42.686;23.136;2022-10-22T07:09:01;15.63;;;12.57;;
8281;SDS011;25606;42.686;23.136;2022-10-22T07:11:29;18.40;;;12.87;;
8281;SDS011;25606;42.686;23.136;2022-10-22T07:13:58;14.53;;;12.40;;
8281;SDS011;25606;42.686;23.136;2022-10-22T07:16:26;14.80;;;12.00;;
8281;SDS011;25606;42.686;23.136;2022-10-22T07:18:53;16.03;;;11.57;;
8281;SDS011;25606;42.686;23.136;2022-10-22T07:21:20;14.77;;;11.90;;
8281;SDS011;25606;42.686;23.136;2022-10-22T07:23:50;14.40;;;11.73;;
8281;SDS011;25606;42.686;23.136;2022-10-22T07:26:17;16.30;;;11.93;;
8281;SDS011;25606;42.686;23.136;2022-10-22T07:28:45;13.87;;;11.93;;
8281;SDS011;25606;42.686;23.136;2022-10-22T07:31:14;15.17;;;12.73;;
8281;SDS011;25606;42.686;23.136;2022-10-22T07:33:42;15.07;;;11.63;;
8281;SDS011;25606;42.686;23.136;2022-10-22T07:36:11;13.67;;;11.70;;
8281;SDS011;25606;42.686;23.136;2022-10-22T07:38:41;12.97;;;11.43;;
8281;SDS011;25606;42.686;23.136;2022-10-22T07:41:09;12.63;;;11.23;;
8281;SDS011;25606;42.686;23.136;2022-10-22T07:43:36;12.63;;;10.73;;
8281;SDS011;25606;42.686;23.136;2022-10-22T07:46:04;17.53;;;11.73;;
8281;SDS011;25606;42.686;23.136;2022-10-22T07:48:34;13.30;;;11.63;;
8281;SDS011;25606;42.686;23.136;2022-10-22T07:51:01;14.97;;;11.63;;
8281;SDS011;25606;42.686;23.136;2022-10-22T07:53:29;13.83;;;11.23;;
8281;SDS011;25606;42.686;23.136;2022-10-22T07:55:57;14.70;;;10.90;;
8281;SDS011;25606;42.686;23.136;2022-10-22T07:58:24;12.43;;;10.93;;
8281;SDS011;25606;42.686;23.136;2022-10-22T08:00:53;11.93;;;10.63;;
8281;SDS011;25606;42.686;23.136;2022-10-22T08:03:21;12.87;;;10.50;;
8281;SDS011;25606;42.686;23.136;2022-10-22T08:05:49;11.23;;;9.83;;
8281;SDS011;25606;42.686;23.136;2022-10-22T08:08:17;14.50;;;10.67;;
8281;SDS011;25606;42.686;23.136;2022-10-22T08:10:45;12.97;;;10.53;;
8281;SDS011;25606;42.686;23.136;2022-10-22T08:13:13;11.80;;;10.23;;
8281;SDS011;25606;42.686;23.136;2022-10-22T08:15:40;11.57;;;10.20;;
8281;SDS011;25606;42.686;23.136;2022-10-22T08:18:08;12.87;;;11.07;;
8281;SDS011;25606;42.686;23.136;2022-10-22T08:20:35;14.47;;;11.50;;
8281;SDS011;25606;42.686;23.136;2022-10-22T08:23:04;12.20;;;10.47;;
8281;SDS011;25606;42.686;23.136;2022-10-22T08:25:31;15.93;;;10.63;;
8281;SDS011;25606;42.686;23.136;2022-10-22T08:27:59;12.40;;;10.57;;
8281;SDS011;25606;42.686;23.136;2022-10-22T08:30:26;13.57;;;10.67;;
8281;SDS011;25606;42.686;23.136;2022-10-22T08:32:54;13.90;;;10.77;;
8281;SDS011;25606;42.686;23.136;2022-10-22T08:35:21;13.50;;;10.67;;
8281;SDS011;25606;42.686;23.136;2022-10-22T08:37:48;13.80;;;10.27;;
8281;SDS011;25606;42.686;23.136;2022-10-22T08:40:20;10.67;;;9.53;;
8281;SDS011;25606;42.686;23.136;2022-10-22T08:43:00;14.63;;;10.20;;
8281;SDS011;25606;42.686;23.136;2022-10-22T08:45:29;12.33;;;9.90;;
8281;SDS011;25606;42.686;23.136;2022-10-22T08:48:03;11.40;;;10.03;;
8281;SDS011;25606;42.686;23.136;2022-10-22T08:50:34;11.47;;;9.83;;
8281;SDS011;25606;42.686;23.136;2022-10-22T08:53:04;10.10;;;8.87;;
8281;SDS011;25606;42.686;23.136;2022-10-22T08:55:34;10.80;;;9.70;;
8281;SDS011;25606;42.686;23.136;2022-10-22T08:58:03;10.80;;;9.27;;
8281;SDS011;25606;42.686;23.136;2022-10-22T09:00:33;10.20;;;9.13;;
8281;SDS011;25606;42.686;23.136;2022-10-22T09:03:09;12.30;;;9.27;;
8281;SDS011;25606;42.686;23.136;2022-10-22T09:05:41;12.20;;;9.07;;
8281;SDS011;25606;42.686;23.136;2022-10-22T09:08:09;13.63;;;11.00;;
8281;SDS011;25606;42.686;23.136;2022-10-22T09:10:40;15.70;;;10.47;;
8281;SDS011;25606;42.686;23.136;2022-10-22T09:13:09;12.27;;;9.77;;
8281;SDS011;25606;42.686;23.136;2022-10-22T09:15:37;15.43;;;10.80;;
8281;SDS011;25606;42.686;23.136;2022-10-22T09:18:09;15.07;;;11.10;;
8281;SDS011;25606;42.686;23.136;2022-10-22T09:20:40;11.77;;;9.33;;
8281;SDS011;25606;42.686;23.136;2022-10-22T09:23:18;11.73;;;9.50;;
8281;SDS011;25606;42.686;23.136;2022-10-22T09:25:48;13.30;;;9.40;;
8281;SDS011;25606;42.686;23.136;2022-10-22T09:28:17;9.03;;;8.13;;
8281;SDS011;25606;42.686;23.136;2022-10-22T09:30:44;11.83;;;8.03;;
8281;SDS011;25606;42.686;23.136;2022-10-22T09:33:13;9.10;;;8.10;;
8281;SDS011;25606;42.686;23.136;2022-10-22T09:35:45;8.77;;;7.87;;
8281;SDS011;25606;42.686;23.136;2022-10-22T09:38:13;10.13;;;7.97;;
8281;SDS011;25606;42.686;23.136;2022-10-22T09:40:41;8.47;;;7.63;;
8281;SDS011;25606;42.686;23.136;2022-10-22T09:43:12;13.57;;;9.07;;
8281;SDS011;25606;42.686;23.136;2022-10-22T09:45:39;10.77;;;8.47;;
8281;SDS011;25606;42.686;23.136;2022-10-22T09:48:11;13.40;;;9.00;;
8281;SDS011;25606;42.686;23.136;2022-10-22T09:50:40;11.27;;;9.07;;
8281;SDS011;25606;42.686;23.136;2022-10-22T09:53:11;13.40;;;9.67;;
8281;SDS011;25606;42.686;23.136;2022-10-22T09:55:39;13.13;;;9.23;;
8281;SDS011;25606;42.686;23.136;2022-10-22T09:58:08;13.57;;;9.40;;
8281;SDS011;25606;42.686;23.136;2022-10-22T10:00:38;12.13;;;10.20;;
8281;SDS011;25606;42.686;23.136;2022-10-22T10:03:06;12.50;;;9.43;;
8281;SDS011;25606;42.686;23.136;2022-10-22T10:05:33;13.00;;;9.77;;
8281;SDS011;25606;42.686;23.136;2022-10-22T10:08:06;11.87;;;9.07;;
8281;SDS011;25606;42.686;23.136;2022-10-22T10:10:36;12.17;;;8.97;;
8281;SDS011;25606;42.686;23.136;2022-10-22T10:13:15;14.02;;;9.60;;
8281;SDS011;25606;42.686;23.136;2022-10-22T10:15:46;14.60;;;9.20;;
8281;SDS011;25606;42.686;23.136;2022-10-22T10:18:18;12.27;;;9.05;;
8281;SDS011;25606;42.686;23.136;2022-10-22T10:20:51;16.25;;;8.63;;
8281;SDS011;25606;42.686;23.136;2022-10-22T10:23:23;12.00;;;7.53;;
8281;SDS011;25606;42.686;23.136;2022-10-22T10:25:54;11.70;;;6.72;;
8281;SDS011;25606;42.686;23.136;2022-10-22T10:28:30;14.82;;;8.80;;
8281;SDS011;25606;42.686;23.136;2022-10-22T10:31:02;10.88;;;8.55;;
8281;SDS011;25606;42.686;23.136;2022-10-22T10:33:35;7.40;;;5.70;;
8281;SDS011;25606;42.686;23.136;2022-10-22T10:36:07;10.25;;;5.40;;
8281;SDS011;25606;42.686;23.136;2022-10-22T10:38:37;10.27;;;6.82;;
8281;SDS011;25606;42.686;23.136;2022-10-22T10:43:58;10.82;;;7.18;;
8281;SDS011;25606;42.686;23.136;2022-10-22T10:46:31;14.35;;;7.82;;
8281;SDS011;25606;42.686;23.136;2022-10-22T10:49:00;12.23;;;7.30;;
8281;SDS011;25606;42.686;23.136;2022-10-22T10:51:36;13.98;;;9.52;;
8281;SDS011;25606;42.686;23.136;2022-10-22T10:54:07;15.60;;;8.27;;
8281;SDS011;25606;42.686;23.136;2022-10-22T10:56:37;9.85;;;5.72;;
8281;SDS011;25606;42.686;23.136;2022-10-22T10:59:16;9.05;;;4.75;;
8281;SDS011;25606;42.686;23.136;2022-10-22T11:02:08;10.55;;;5.32;;
8281;SDS011;25606;42.686;23.136;2022-10-22T11:04:42;12.20;;;6.07;;
8281;SDS011;25606;42.686;23.136;2022-10-22T11:07:14;11.90;;;5.40;;
8281;SDS011;25606;42.686;23.136;2022-10-22T11:09:44;8.27;;;5.10;;
8281;SDS011;25606;42.686;23.136;2022-10-22T11:12:14;11.23;;;5.50;;
8281;SDS011;25606;42.686;23.136;2022-10-22T11:14:45;9.48;;;5.13;;
8281;SDS011;25606;42.686;23.136;2022-10-22T11:17:16;8.73;;;5.10;;
8281;SDS011;25606;42.686;23.136;2022-10-22T11:19:44;10.90;;;4.57;;
8281;SDS011;25606;42.686;23.136;2022-10-22T11:22:14;8.32;;;5.57;;
8281;SDS011;25606;42.686;23.136;2022-10-22T11:24:45;10.30;;;4.82;;
8281;SDS011;25606;42.686;23.136;2022-10-22T11:27:20;10.80;;;5.70;;
8281;SDS011;25606;42.686;23.136;2022-10-22T11:29:48;13.27;;;5.90;;
8281;SDS011;25606;42.686;23.136;2022-10-22T11:32:20;8.43;;;5.03;;
8281;SDS011;25606;42.686;23.136;2022-10-22T11:34:52;11.32;;;5.88;;
8281;SDS011;25606;42.686;23.136;2022-10-22T11:37:21;10.95;;;4.72;;
8281;SDS011;25606;42.686;23.136;2022-10-22T11:39:49;11.27;;;5.70;;
8281;SDS011;25606;42.686;23.136;2022-10-22T11:42:18;9.63;;;5.57;;
8281;SDS011;25606;42.686;23.136;2022-10-22T11:44:47;14.82;;;5.90;;
8281;SDS011;25606;42.686;23.136;2022-10-22T11:47:16;11.57;;;5.78;;
8281;SDS011;25606;42.686;23.136;2022-10-22T11:49:53;12.00;;;5.65;;
8281;SDS011;25606;42.686;23.136;2022-10-22T11:52:22;15.40;;;5.90;;
8281;SDS011;25606;42.686;23.136;2022-10-22T11:54:52;14.25;;;5.97;;
8281;SDS011;25606;42.686;23.136;2022-10-22T11:57:21;16.23;;;6.40;;
8281;SDS011;25606;42.686;23.136;2022-10-22T11:59:49;9.55;;;5.40;;
8281;SDS011;25606;42.686;23.136;2022-10-22T12:05:29;13.30;;;7.53;;
8281;SDS011;25606;42.686;23.136;2022-10-22T12:08:00;10.13;;;7.07;;
8281;SDS011;25606;42.686;23.136;2022-10-22T12:10:29;13.68;;;8.35;;
8281;SDS011;25606;42.686;23.136;2022-10-22T12:13:01;15.95;;;9.82;;
8281;SDS011;25606;42.686;23.136;2022-10-22T12:15:28;14.75;;;7.40;;
8281;SDS011;25606;42.686;23.136;2022-10-22T12:17:58;11.27;;;7.32;;
8281;SDS011;25606;42.686;23.136;2022-10-22T12:20:27;14.93;;;7.60;;
8281;SDS011;25606;42.686;23.136;2022-10-22T12:22:54;11.27;;;6.78;;
8281;SDS011;25606;42.686;23.136;2022-10-22T12:25:24;11.60;;;6.25;;
8281;SDS011;25606;42.686;23.136;2022-10-22T12:27:52;11.13;;;6.80;;
8281;SDS011;25606;42.686;23.136;2022-10-22T12:30:21;12.52;;;6.50;;
8281;SDS011;25606;42.686;23.136;2022-10-22T12:32:50;12.38;;;5.82;;
8281;SDS011;25606;42.686;23.136;2022-10-22T12:35:19;14.23;;;7.10;;
8281;SDS011;25606;42.686;23.136;2022-10-22T12:37:49;9.57;;;6.18;;
8281;SDS011;25606;42.686;23.136;2022-10-22T12:40:18;10.82;;;5.68;;
8281;SDS011;25606;42.686;23.136;2022-10-22T12:42:46;6.50;;;5.15;;
8281;SDS011;25606;42.686;23.136;2022-10-22T12:45:14;9.05;;;4.75;;
8281;SDS011;25606;42.686;23.136;2022-10-22T12:47:44;8.03;;;5.13;;
8281;SDS011;25606;42.686;23.136;2022-10-22T12:50:14;6.83;;;4.77;;
8281;SDS011;25606;42.686;23.136;2022-10-22T12:52:43;8.40;;;4.97;;
8281;SDS011;25606;42.686;23.136;2022-10-22T12:55:15;12.23;;;5.00;;
8281;SDS011;25606;42.686;23.136;2022-10-22T12:57:44;7.43;;;5.10;;
8281;SDS011;25606;42.686;23.136;2022-10-22T13:00:19;7.17;;;5.10;;
8281;SDS011;25606;42.686;23.136;2022-10-22T13:02:46;8.80;;;4.50;;
8281;SDS011;25606;42.686;23.136;2022-10-22T13:10:52;9.33;;;4.50;;
8281;SDS011;25606;42.686;23.136;2022-10-22T13:13:30;8.50;;;4.80;;
8281;SDS011;25606;42.686;23.136;2022-10-22T13:16:11;8.70;;;4.67;;
8281;SDS011;25606;42.686;23.136;2022-10-22T13:18:38;8.97;;;4.40;;
8281;SDS011;25606;42.686;23.136;2022-10-22T13:21:19;7.57;;;4.47;;
8281;SDS011;25606;42.686;23.136;2022-10-22T13:23:50;6.97;;;4.60;;
8281;SDS011;25606;42.686;23.136;2022-10-22T13:26:19;9.00;;;4.63;;
8281;SDS011;25606;42.686;23.136;2022-10-22T13:28:50;10.52;;;5.75;;
8281;SDS011;25606;42.686;23.136;2022-10-22T13:31:18;8.90;;;4.70;;
8281;SDS011;25606;42.686;23.136;2022-10-22T13:33:49;10.73;;;4.23;;
8281;SDS011;25606;42.686;23.136;2022-10-22T13:36:17;9.57;;;4.20;;
8281;SDS011;25606;42.686;23.136;2022-10-22T13:38:45;7.63;;;4.37;;
8281;SDS011;25606;42.686;23.136;2022-10-22T13:41:20;8.77;;;4.23;;
8281;SDS011;25606;42.686;23.136;2022-10-22T13:43:48;7.30;;;4.43;;
8281;SDS011;25606;42.686;23.136;2022-10-22T13:46:16;6.87;;;4.90;;
8281;SDS011;25606;42.686;23.136;2022-10-22T13:48:44;7.97;;;4.97;;
8281;SDS011;25606;42.686;23.136;2022-10-22T13:51:12;5.73;;;5.03;;
8281;SDS011;25606;42.686;23.136;2022-10-22T13:53:40;11.63;;;5.23;;
8281;SDS011;25606;42.686;23.136;2022-10-22T13:56:10;9.10;;;4.70;;
8281;SDS011;25606;42.686;23.136;2022-10-22T13:58:40;6.57;;;4.97;;
8281;SDS011;25606;42.686;23.136;2022-10-22T14:01:11;9.50;;;6.00;;
8281;SDS011;25606;42.686;23.136;2022-10-22T14:03:42;12.80;;;7.60;;
8281;SDS011;25606;42.686;23.136;2022-10-22T14:06:11;12.67;;;8.17;;
8281;SDS011;25606;42.686;23.136;2022-10-22T14:08:39;18.90;;;9.93;;
8281;SDS011;25606;42.686;23.136;2022-10-22T14:11:07;16.17;;;10.90;;
8281;SDS011;25606;42.686;23.136;2022-10-22T14:13:35;16.30;;;10.70;;
8281;SDS011;25606;42.686;23.136;2022-10-22T14:16:03;14.40;;;10.13;;
8281;SDS011;25606;42.686;23.136;2022-10-22T14:18:31;14.13;;;10.53;;
8281;SDS011;25606;42.686;23.136;2022-10-22T14:20:59;15.93;;;11.20;;
8281;SDS011;25606;42.686;23.136;2022-10-22T14:23:29;15.27;;;10.57;;
8281;SDS011;25606;42.686;23.136;2022-10-22T14:25:57;16.53;;;10.60;;
8281;SDS011;25606;42.686;23.136;2022-10-22T14:28:25;13.20;;;9.87;;
8281;SDS011;25606;42.686;23.136;2022-10-22T14:30:56;18.83;;;10.50;;
8281;SDS011;25606;42.686;23.136;2022-10-22T14:33:25;14.60;;;10.07;;
8281;SDS011;25606;42.686;23.136;2022-10-22T14:35:52;13.37;;;9.47;;
8281;SDS011;25606;42.686;23.136;2022-10-22T14:38:20;14.20;;;9.37;;
8281;SDS011;25606;42.686;23.136;2022-10-22T14:40:47;12.37;;;8.90;;
8281;SDS011;25606;42.686;23.136;2022-10-22T14:43:18;16.33;;;9.60;;
8281;SDS011;25606;42.686;23.136;2022-10-22T14:45:46;11.13;;;8.40;;
8281;SDS011;25606;42.686;23.136;2022-10-22T14:48:13;11.73;;;8.77;;
8281;SDS011;25606;42.686;23.136;2022-10-22T14:50:42;12.83;;;8.10;;
8281;SDS011;25606;42.686;23.136;2022-10-22T14:53:10;16.13;;;8.20;;